Time;durP1;ratioP1;P1;durP2;ratioP2;P2;SDS_P1;SDS_P2;PMS_P1;PMS_P2;Temp;Humidity;BMP_temperature;BMP_pressure;BME280_temperature;BME280_humidity;BME280_pressure;Samples;Min_cycle;Max_cycle;Signal;HPM_P1;HPM_P2
2023/08/08 00:01:42;;;;;;;3.70;2.08;;;22.80;66.00;;;;;;4949543;28;20954;-69
2023/08/08 00:04:11;;;;;;;3.30;1.67;;;24.30;59.80;;;;;;4953193;28;20393;-68
2023/08/08 00:06:38;;;;;;;7.50;2.15;;;24.10;60.30;;;;;;4951494;28;20034;-69
2023/08/08 00:09:06;;;;;;;3.65;1.98;;;23.90;60.40;;;;;;4951161;28;20038;-70
2023/08/08 00:11:34;;;;;;;5.20;1.52;;;24.40;57.50;;;;;;4959348;28;20070;-69
2023/08/08 00:14:01;;;;;;;4.88;1.67;;;23.70;59.40;;;;;;4952850;28;20663;-70
2023/08/08 00:16:28;;;;;;;3.75;1.55;;;23.50;61.60;;;;;;4949694;28;20066;-70
2023/08/08 00:18:56;;;;;;;4.03;1.88;;;23.50;61.90;;;;;;4955572;28;20451;-69
2023/08/08 00:21:23;;;;;;;4.80;1.50;;;24.30;59.90;;;;;;4953886;28;20023;-69
2023/08/08 00:23:50;;;;;;;3.00;1.20;;;24.30;60.30;;;;;;4949206;28;20544;-69
2023/08/08 00:26:17;;;;;;;3.28;1.40;;;24.90;56.90;;;;;;4949142;28;21022;-69
2023/08/08 00:28:45;;;;;;;3.42;1.70;;;25.50;55.90;;;;;;4950185;28;20019;-70
2023/08/08 00:31:12;;;;;;;6.03;1.25;;;25.20;56.50;;;;;;4944414;28;20108;-70
2023/08/08 00:33:40;;;;;;;4.25;1.55;;;25.30;55.20;;;;;;4944461;28;20460;-67
2023/08/08 00:36:07;;;;;;;5.15;1.45;;;25.40;54.30;;;;;;4945047;28;20023;-68
2023/08/08 00:38:34;;;;;;;6.63;1.52;;;25.30;53.90;;;;;;4946108;28;22637;-67
2023/08/08 00:41:02;;;;;;;2.72;1.17;;;25.60;53.70;;;;;;4945099;28;20382;-68
2023/08/08 00:43:29;;;;;;;6.30;1.42;;;24.70;55.90;;;;;;4944792;28;20118;-67
2023/08/08 00:45:57;;;;;;;3.53;1.00;;;24.90;57.20;;;;;;4947819;28;20059;-68
2023/08/08 00:48:25;;;;;;;4.93;1.00;;;25.30;53.80;;;;;;4948511;28;20107;-67
2023/08/08 00:50:52;;;;;;;2.63;0.80;;;25.70;52.50;;;;;;4944854;28;20492;-68
2023/08/08 00:53:25;;;;;;;3.50;1.10;;;25.20;51.40;;;;;;4948921;28;20121;-68
2023/08/08 00:55:55;;;;;;;4.75;1.25;;;24.50;50.90;;;;;;4946911;28;20056;-68
2023/08/08 00:58:22;;;;;;;4.13;0.90;;;23.80;54.40;;;;;;4951729;28;20047;-67
2023/08/08 01:00:49;;;;;;;6.32;1.23;;;23.80;55.10;;;;;;4952317;28;20404;-69
2023/08/08 01:03:17;;;;;;;3.88;1.00;;;22.70;57.40;;;;;;4947961;28;20035;-69
2023/08/08 01:06:07;;;;;;;3.08;1.05;;;21.90;61.00;;;;;;4953250;28;20460;-68
2023/08/08 01:08:55;;;;;;;4.07;1.23;;;21.40;61.10;;;;;;4955104;28;20035;-68
2023/08/08 01:11:24;;;;;;;6.43;0.80;;;21.30;62.90;;;;;;4949065;28;20043;-69
2023/08/08 01:13:54;;;;;;;5.30;0.90;;;21.60;62.40;;;;;;4951232;28;20031;-68
2023/08/08 01:16:22;;;;;;;4.78;1.00;;;21.70;61.90;;;;;;4948639;28;20023;-68
2023/08/08 01:18:50;;;;;;;5.03;1.00;;;21.40;62.60;;;;;;4949802;28;20023;-68
2023/08/08 01:21:18;;;;;;;2.78;0.90;;;21.70;62.30;;;;;;4950205;28;20400;-69
2023/08/08 01:23:56;;;;;;;4.10;1.30;;;22.00;62.20;;;;;;4966191;28;20034;-69
2023/08/08 01:26:25;;;;;;;2.45;0.82;;;22.50;60.50;;;;;;4953939;28;20028;-68
2023/08/08 01:28:55;;;;;;;4.38;0.90;;;23.20;58.50;;;;;;4949333;28;20431;-68
2023/08/08 01:31:23;;;;;;;3.55;0.90;;;24.30;52.00;;;;;;4947946;28;20027;-68
2023/08/08 01:33:50;;;;;;;5.32;1.00;;;24.00;54.30;;;;;;4951391;28;20039;-68
2023/08/08 01:36:34;;;;;;;2.33;1.00;;;24.20;55.10;;;;;;4946795;28;20042;-68
2023/08/08 01:39:05;;;;;;;3.10;1.00;;;24.70;52.20;;;;;;4952606;28;20122;-68
2023/08/08 01:41:40;;;;;;;5.13;1.08;;;25.20;53.70;;;;;;4942527;28;20122;-68
2023/08/08 01:44:07;;;;;;;1.98;0.88;;;25.30;51.10;;;;;;4950749;28;20035;-68
2023/08/08 01:46:36;;;;;;;4.43;1.10;;;25.70;51.20;;;;;;4944818;28;20043;-68
2023/08/08 01:49:03;;;;;;;3.17;1.25;;;26.00;50.90;;;;;;4949161;28;20023;-69
2023/08/08 01:51:31;;;;;;;7.47;1.48;;;26.30;50.70;;;;;;4949836;28;20054;-68
2023/08/08 01:53:58;;;;;;;3.28;1.05;;;26.40;49.70;;;;;;4945689;28;20027;-68
2023/08/08 01:56:25;;;;;;;2.40;0.90;;;25.90;48.70;;;;;;4946978;28;20079;-68
2023/08/08 01:58:53;;;;;;;3.70;0.93;;;24.90;52.20;;;;;;4936032;28;20118;-68
2023/08/08 02:01:20;;;;;;;4.90;0.77;;;24.40;50.10;;;;;;4951448;28;20031;-69
2023/08/08 02:03:47;;;;;;;3.58;1.23;;;23.30;53.40;;;;;;4944330;28;20416;-68
2023/08/08 02:06:15;;;;;;;4.22;1.20;;;22.90;54.10;;;;;;4947569;28;20046;-68
2023/08/08 02:08:42;;;;;;;2.95;1.00;;;22.30;55.90;;;;;;4952659;28;20031;-68
2023/08/08 02:11:09;;;;;;;4.50;0.85;;;21.60;58.20;;;;;;4952366;28;20117;-68
2023/08/08 02:13:37;;;;;;;5.80;1.00;;;20.80;60.40;;;;;;4952574;28;20031;-68
2023/08/08 02:16:04;;;;;;;2.75;1.00;;;20.60;61.00;;;;;;4949118;28;20106;-68
2023/08/08 02:18:31;;;;;;;5.70;1.27;;;20.40;61.80;;;;;;4948519;28;20126;-69
2023/08/08 02:20:59;;;;;;;3.78;1.20;;;20.10;63.10;;;;;;4952238;28;20485;-70
2023/08/08 02:23:26;;;;;;;4.50;1.00;;;20.90;61.70;;;;;;4945748;28;20025;-68
2023/08/08 02:25:53;;;;;;;3.28;0.82;;;22.10;57.30;;;;;;4949812;28;20377;-70
2023/08/08 02:28:21;;;;;;;7.10;1.02;;;23.00;56.20;;;;;;4947334;28;20031;-68
2023/08/08 02:30:48;;;;;;;1.35;0.60;;;23.60;51.60;;;;;;4948107;28;20673;-70
2023/08/08 02:33:15;;;;;;;2.38;0.80;;;24.00;47.20;;;;;;4942874;28;20027;-68
2023/08/08 02:35:43;;;;;;;2.42;0.95;;;24.10;49.70;;;;;;4952587;28;20536;-69
2023/08/08 02:38:10;;;;;;;5.90;1.10;;;24.50;48.60;;;;;;4949615;28;20024;-68
2023/08/08 02:40:38;;;;;;;4.13;0.90;;;24.60;47.90;;;;;;4951607;28;20082;-68
2023/08/08 02:43:06;;;;;;;2.72;0.93;;;24.60;48.50;;;;;;4947068;28;20023;-70
2023/08/08 02:45:33;;;;;;;1.25;0.60;;;24.60;48.60;;;;;;4950774;28;20376;-70
2023/08/08 02:48:00;;;;;;;5.63;1.02;;;24.70;49.10;;;;;;4950275;28;20429;-70
2023/08/08 02:50:28;;;;;;;3.22;0.90;;;24.80;47.70;;;;;;4948777;28;20043;-67
2023/08/08 02:52:55;;;;;;;4.78;0.93;;;24.70;48.80;;;;;;4942826;28;20031;-68
2023/08/08 02:55:22;;;;;;;2.17;0.90;;;24.80;48.00;;;;;;4950450;28;20385;-68
2023/08/08 02:57:50;;;;;;;10.85;1.10;;;25.20;46.50;;;;;;4949721;28;20058;-69
2023/08/08 03:00:17;;;;;;;3.00;1.00;;;24.90;46.30;;;;;;4950047;28;20180;-68
2023/08/08 03:02:44;;;;;;;4.68;1.20;;;24.40;45.70;;;;;;4942654;28;20499;-68
2023/08/08 03:05:12;;;;;;;4.15;0.80;;;24.20;48.70;;;;;;4948704;28;20524;-68
2023/08/08 03:07:39;;;;;;;3.97;1.02;;;24.20;47.50;;;;;;4949704;28;20027;-68
2023/08/08 03:10:06;;;;;;;4.18;1.15;;;23.40;48.20;;;;;;4952727;28;20035;-69
2023/08/08 03:12:34;;;;;;;3.78;1.00;;;23.30;48.80;;;;;;4950523;28;20078;-68
2023/08/08 03:15:01;;;;;;;2.85;1.02;;;23.30;48.50;;;;;;4951757;28;20036;-69
2023/08/08 03:17:28;;;;;;;4.20;0.90;;;23.30;48.20;;;;;;4948134;28;20023;-69
2023/08/08 03:19:56;;;;;;;4.28;1.02;;;23.20;48.80;;;;;;4946352;28;20589;-68
2023/08/08 03:22:23;;;;;;;3.47;0.75;;;23.20;49.20;;;;;;4942391;28;20039;-68
2023/08/08 03:24:50;;;;;;;4.50;0.90;;;23.10;49.10;;;;;;4938836;28;20063;-69
2023/08/08 03:27:18;;;;;;;5.82;0.95;;;23.20;50.10;;;;;;4944783;28;20059;-67
2023/08/08 03:29:45;;;;;;;4.72;0.73;;;23.40;49.70;;;;;;4955566;28;20045;-68
2023/08/08 03:32:12;;;;;;;1.70;0.82;;;23.80;49.70;;;;;;4948490;28;20035;-69
2023/08/08 03:34:40;;;;;;;3.10;0.88;;;23.80;48.80;;;;;;4948702;28;20027;-67
2023/08/08 03:37:07;;;;;;;4.18;0.80;;;23.80;47.80;;;;;;4947783;28;20515;-69
2023/08/08 03:39:34;;;;;;;3.35;0.82;;;23.80;48.70;;;;;;4949913;28;20035;-69
2023/08/08 03:42:02;;;;;;;2.55;0.88;;;23.50;49.40;;;;;;4945258;28;20386;-70
2023/08/08 03:44:29;;;;;;;3.95;0.93;;;23.60;47.40;;;;;;4950689;28;20491;-68
2023/08/08 03:46:56;;;;;;;3.25;0.90;;;23.70;47.80;;;;;;4949271;28;20023;-68
2023/08/08 03:49:24;;;;;;;6.32;1.02;;;23.60;47.40;;;;;;4949437;28;20039;-69
2023/08/08 03:51:51;;;;;;;3.28;0.75;;;23.40;47.20;;;;;;4944015;28;20030;-69
2023/08/08 03:54:19;;;;;;;1.63;0.60;;;23.00;47.20;;;;;;4948097;28;20037;-70
2023/08/08 03:56:46;;;;;;;1.00;0.52;;;22.60;48.20;;;;;;4947578;28;20035;-70
2023/08/08 03:59:14;;;;;;;3.95;0.85;;;22.20;47.90;;;;;;4946456;28;20098;-70
2023/08/08 04:01:41;;;;;;;1.92;0.70;;;21.80;49.90;;;;;;4964707;28;20484;-70
2023/08/08 04:04:08;;;;;;;1.60;0.80;;;21.90;50.70;;;;;;4952323;28;20082;-69
2023/08/08 04:06:36;;;;;;;4.22;1.02;;;21.80;49.80;;;;;;4950553;28;20027;-70
2023/08/08 04:09:03;;;;;;;2.58;0.70;;;22.00;50.70;;;;;;4952116;28;20077;-69
2023/08/08 04:11:31;;;;;;;3.40;0.70;;;22.20;48.90;;;;;;4946408;28;20400;-69
2023/08/08 04:13:58;;;;;;;4.88;0.70;;;22.10;48.40;;;;;;4950744;28;20023;-69
2023/08/08 04:16:25;;;;;;;2.45;0.77;;;22.20;49.10;;;;;;4945535;28;20419;-69
2023/08/08 04:18:53;;;;;;;2.72;0.75;;;22.40;49.50;;;;;;4951351;28;20024;-69
2023/08/08 04:21:20;;;;;;;3.28;1.05;;;22.30;48.50;;;;;;4948219;28;20039;-69
2023/08/08 04:23:47;;;;;;;4.03;1.02;;;21.90;50.30;;;;;;4947644;28;20128;-69
2023/08/08 04:26:14;;;;;;;1.30;0.60;;;21.70;51.10;;;;;;4951729;28;20032;-68
2023/08/08 04:28:42;;;;;;;5.60;1.30;;;21.70;51.70;;;;;;4947553;28;20517;-68
2023/08/08 04:31:09;;;;;;;1.83;0.68;;;21.90;50.80;;;;;;4947006;28;20058;-68
2023/08/08 04:33:36;;;;;;;2.22;0.80;;;21.80;49.80;;;;;;4950886;28;20400;-68
2023/08/08 04:36:04;;;;;;;3.45;0.93;;;21.50;48.40;;;;;;4953594;28;20031;-68
2023/08/08 04:38:31;;;;;;;2.03;0.77;;;21.40;48.70;;;;;;4950497;28;20392;-69
2023/08/08 04:40:59;;;;;;;2.40;1.00;;;21.40;49.70;;;;;;4953793;28;20035;-69
2023/08/08 04:43:28;;;;;;;5.05;1.10;;;21.40;50.70;;;;;;4969868;28;20041;-69
2023/08/08 04:45:55;;;;;;;2.60;0.82;;;21.10;51.50;;;;;;4950971;28;20471;-69
2023/08/08 04:48:22;;;;;;;4.38;0.73;;;21.10;52.20;;;;;;4949675;28;20043;-68
2023/08/08 04:50:50;;;;;;;3.65;0.80;;;21.10;51.90;;;;;;4951377;28;20031;-68
2023/08/08 04:53:17;;;;;;;2.85;0.80;;;21.00;52.40;;;;;;4949508;28;20397;-69
2023/08/08 04:55:44;;;;;;;1.48;0.82;;;20.70;52.60;;;;;;4952890;28;20046;-68
2023/08/08 04:58:12;;;;;;;4.25;0.90;;;20.60;50.80;;;;;;4947429;28;20359;-69
2023/08/08 05:00:39;;;;;;;5.97;1.08;;;20.50;53.00;;;;;;4952733;28;20031;-68
2023/08/08 05:03:06;;;;;;;10.90;1.23;;;20.60;53.20;;;;;;4953721;28;20031;-68
2023/08/08 05:05:34;;;;;;;5.60;0.93;;;20.80;52.30;;;;;;4955484;28;20038;-68
2023/08/08 05:08:01;;;;;;;4.28;0.98;;;20.80;52.80;;;;;;4953452;28;20411;-67
2023/08/08 05:10:29;;;;;;;3.53;1.42;;;20.90;52.70;;;;;;4953420;28;20047;-68
2023/08/08 05:12:57;;;;;;;6.60;1.65;;;20.90;58.00;;;;;;4952567;28;20041;-68
2023/08/08 05:15:24;;;;;;;4.63;1.70;;;20.70;60.40;;;;;;4953168;28;20384;-68
2023/08/08 05:17:53;;;;;;;6.15;1.70;;;20.50;60.30;;;;;;4950092;28;20046;-68
2023/08/08 05:20:21;;;;;;;6.30;1.30;;;20.40;61.90;;;;;;4951046;28;20429;-68
2023/08/08 05:22:49;;;;;;;5.88;1.48;;;20.40;61.60;;;;;;4950201;28;20042;-68
2023/08/08 05:25:16;;;;;;;4.90;1.55;;;20.20;61.70;;;;;;4954080;28;20035;-70
2023/08/08 05:27:44;;;;;;;8.82;1.95;;;20.00;62.80;;;;;;4950390;28;20023;-67
2023/08/08 05:30:12;;;;;;;5.80;2.20;;;19.80;63.90;;;;;;4953612;28;20043;-69
2023/08/08 05:32:39;;;;;;;7.85;1.80;;;19.60;65.50;;;;;;4950329;28;20039;-68
2023/08/08 05:35:07;;;;;;;4.57;1.50;;;19.30;66.80;;;;;;4950890;28;20354;-68
2023/08/08 05:37:35;;;;;;;8.73;2.05;;;19.20;67.70;;;;;;4950177;28;20388;-68
2023/08/08 05:40:05;;;;;;;7.63;2.10;;;19.00;68.10;;;;;;4954376;28;20031;-69
2023/08/08 05:42:33;;;;;;;5.70;2.05;;;18.90;69.10;;;;;;4951554;28;20094;-69
2023/08/08 05:45:00;;;;;;;5.60;1.75;;;18.80;69.40;;;;;;4953989;28;20082;-68
2023/08/08 05:47:28;;;;;;;5.57;1.67;;;18.60;70.40;;;;;;4949293;28;20028;-68
2023/08/08 05:49:55;;;;;;;5.85;1.73;;;18.50;71.20;;;;;;4953431;28;20488;-67
2023/08/08 05:52:22;;;;;;;10.85;1.75;;;18.40;71.20;;;;;;4955547;28;20548;-68
2023/08/08 05:54:50;;;;;;;5.15;1.70;;;18.30;71.80;;;;;;4961548;28;20046;-68
2023/08/08 05:57:17;;;;;;;7.13;1.42;;;18.30;72.20;;;;;;4951352;28;20392;-68
2023/08/08 05:59:45;;;;;;;4.25;1.30;;;18.50;71.80;;;;;;4953308;28;20067;-69
2023/08/08 06:02:12;;;;;;;4.32;1.50;;;18.60;71.30;;;;;;4953265;28;20082;-68
2023/08/08 06:04:39;;;;;;;3.05;1.52;;;18.80;70.50;;;;;;4953160;28;20023;-67
2023/08/08 06:07:07;;;;;;;3.50;1.60;;;18.80;70.40;;;;;;4951411;28;20189;-68
2023/08/08 06:09:36;;;;;;;7.63;1.60;;;18.80;70.20;;;;;;4951497;28;20035;-69
2023/08/08 06:12:04;;;;;;;7.53;2.20;;;18.80;70.40;;;;;;4949565;28;20137;-69
2023/08/08 06:14:32;;;;;;;5.82;2.28;;;18.80;70.50;;;;;;4953466;28;20030;-68
2023/08/08 06:16:59;;;;;;;6.70;1.80;;;18.90;70.80;;;;;;4944873;28;20114;-69
2023/08/08 06:19:27;;;;;;;6.60;1.83;;;19.00;70.90;;;;;;4951974;28;20094;-71
2023/08/08 06:21:54;;;;;;;7.55;1.70;;;19.00;70.40;;;;;;4951026;28;20034;-68
2023/08/08 06:24:21;;;;;;;6.75;2.22;;;19.00;70.30;;;;;;4947704;28;20520;-69
2023/08/08 06:26:49;;;;;;;6.10;1.60;;;19.00;70.30;;;;;;4953667;28;20059;-69
2023/08/08 06:29:16;;;;;;;8.90;2.42;;;19.00;70.60;;;;;;4952795;28;20086;-69
2023/08/08 06:31:43;;;;;;;11.05;1.75;;;18.80;71.30;;;;;;4946333;28;20035;-69
2023/08/08 06:34:11;;;;;;;9.20;1.50;;;18.70;71.40;;;;;;4954375;28;20489;-69
2023/08/08 06:36:38;;;;;;;6.72;2.10;;;18.60;71.80;;;;;;4949582;28;20033;-69
2023/08/08 06:39:05;;;;;;;3.55;1.95;;;18.40;73.00;;;;;;4951563;28;20106;-69
2023/08/08 06:41:33;;;;;;;8.63;1.40;;;18.20;73.50;;;;;;4951398;28;20027;-69
2023/08/08 06:44:00;;;;;;;3.45;1.65;;;18.10;74.10;;;;;;4950177;28;20077;-69
2023/08/08 06:46:27;;;;;;;6.95;1.73;;;18.00;74.90;;;;;;4950463;28;20061;-69
2023/08/08 06:48:58;;;;;;;9.27;1.83;;;17.80;75.20;;;;;;4951495;28;20066;-69
2023/08/08 06:51:26;;;;;;;6.20;2.55;;;17.70;75.90;;;;;;4951881;28;20485;-69
2023/08/08 06:53:54;;;;;;;5.32;1.60;;;17.70;76.10;;;;;;4953355;28;20027;-69
2023/08/08 06:56:21;;;;;;;2.78;1.60;;;17.60;76.40;;;;;;4948434;28;20020;-69
2023/08/08 06:58:48;;;;;;;5.32;1.70;;;17.50;77.00;;;;;;4953831;28;20079;-70
2023/08/08 07:01:16;;;;;;;5.45;1.98;;;17.50;76.90;;;;;;4942519;28;20039;-68
2023/08/08 07:03:43;;;;;;;8.60;1.80;;;17.40;77.60;;;;;;4946184;28;20046;-68
2023/08/08 07:06:11;;;;;;;10.13;1.85;;;17.40;77.30;;;;;;4945448;28;20027;-69
2023/08/08 07:08:42;;;;;;;7.20;2.03;;;17.40;77.70;;;;;;4954916;28;20121;-69
2023/08/08 07:11:10;;;;;;;4.20;1.33;;;17.30;77.70;;;;;;4949246;28;20503;-69
2023/08/08 07:13:37;;;;;;;7.82;1.73;;;17.30;78.30;;;;;;4951334;28;20027;-69
2023/08/08 07:16:05;;;;;;;3.97;1.90;;;17.20;78.50;;;;;;4950740;28;20031;-70
2023/08/08 07:18:32;;;;;;;6.15;1.60;;;17.10;78.70;;;;;;4951349;28;20047;-69
2023/08/08 07:21:00;;;;;;;5.35;1.60;;;17.00;78.60;;;;;;4953526;28;20495;-69
2023/08/08 07:23:27;;;;;;;7.43;1.90;;;17.00;78.90;;;;;;4952413;28;20034;-69
2023/08/08 07:25:55;;;;;;;7.35;2.03;;;16.90;79.50;;;;;;4954936;28;20085;-69
2023/08/08 07:28:22;;;;;;;5.72;2.05;;;16.90;80.00;;;;;;4948699;28;20035;-69
2023/08/08 07:30:49;;;;;;;5.20;2.28;;;16.80;80.60;;;;;;4951401;28;20039;-68
2023/08/08 07:33:16;;;;;;;5.57;1.83;;;16.70;81.10;;;;;;4948322;28;20421;-68
2023/08/08 07:35:44;;;;;;;10.70;2.17;;;16.70;81.60;;;;;;4952325;28;20015;-68
2023/08/08 07:38:11;;;;;;;5.18;2.00;;;16.60;81.80;;;;;;4953704;28;20439;-68
2023/08/08 07:40:40;;;;;;;7.35;1.77;;;16.50;82.20;;;;;;4949253;28;21400;-68
2023/08/08 07:43:08;;;;;;;7.47;2.00;;;16.50;82.70;;;;;;4948580;28;20057;-68
2023/08/08 07:45:35;;;;;;;8.57;2.20;;;16.50;83.00;;;;;;4943868;28;20037;-67
2023/08/08 07:48:02;;;;;;;6.50;1.58;;;16.40;83.30;;;;;;4947229;28;20078;-68
2023/08/08 07:50:30;;;;;;;6.80;1.60;;;16.40;83.50;;;;;;4948093;28;20038;-67
2023/08/08 07:52:57;;;;;;;7.00;1.90;;;16.30;84.10;;;;;;4948766;28;20039;-68
2023/08/08 07:55:24;;;;;;;6.10;2.63;;;16.20;84.50;;;;;;4944153;28;20469;-67
2023/08/08 07:57:52;;;;;;;7.18;2.65;;;16.20;85.30;;;;;;4944543;28;20051;-69
2023/08/08 08:00:20;;;;;;;10.15;4.70;;;16.20;85.80;;;;;;4951568;28;20066;-70
2023/08/08 08:02:48;;;;;;;23.45;11.57;;;16.10;85.60;;;;;;4938777;29;21385;-67
2023/08/08 08:05:15;;;;;;;17.65;11.57;;;16.00;86.30;;;;;;4945552;28;20070;-67
2023/08/08 08:07:42;;;;;;;27.02;14.27;;;16.00;86.80;;;;;;4948652;28;20121;-67
2023/08/08 08:10:13;;;;;;;14.98;5.20;;;16.00;86.90;;;;;;4949946;28;20413;-68
2023/08/08 08:12:41;;;;;;;8.15;2.92;;;16.00;86.90;;;;;;4946286;28;20040;-68
2023/08/08 08:15:10;;;;;;;5.70;2.67;;;15.90;87.30;;;;;;4950130;28;20078;-68
2023/08/08 08:17:38;;;;;;;10.20;2.60;;;15.80;87.90;;;;;;4949044;28;20027;-67
2023/08/08 08:20:10;;;;;;;21.27;3.88;;;15.70;88.70;;;;;;4950732;28;20086;-68
2023/08/08 08:22:38;;;;;;;7.53;2.78;;;15.70;89.20;;;;;;4948288;28;20032;-68
2023/08/08 08:25:08;;;;;;;7.97;2.90;;;15.60;89.80;;;;;;4949313;28;20090;-69
2023/08/08 08:27:37;;;;;;;9.55;3.50;;;15.60;89.90;;;;;;4944462;28;20074;-68
2023/08/08 08:30:06;;;;;;;9.10;3.10;;;15.50;90.10;;;;;;4947818;28;20212;-67
2023/08/08 08:32:35;;;;;;;14.02;3.08;;;15.40;90.70;;;;;;4941849;28;20030;-67
2023/08/08 08:35:06;;;;;;;9.57;3.60;;;15.30;90.90;;;;;;4954912;28;20108;-67
2023/08/08 08:37:33;;;;;;;7.28;3.30;;;15.20;91.20;;;;;;4947892;28;20053;-68
2023/08/08 08:40:04;;;;;;;5.22;2.95;;;15.10;91.50;;;;;;4948229;28;20111;-68
2023/08/08 08:42:33;;;;;;;9.32;3.25;;;15.00;91.80;;;;;;4942851;28;20027;-68
2023/08/08 08:45:04;;;;;;;9.55;2.53;;;15.10;91.60;;;;;;4918438;28;20030;-69
2023/08/08 08:47:33;;;;;;;7.00;2.88;;;14.90;92.00;;;;;;4939458;28;20031;-69
2023/08/08 08:50:03;;;;;;;14.23;2.80;;;15.00;92.10;;;;;;4945180;28;20039;-67
2023/08/08 08:52:30;;;;;;;7.80;2.90;;;14.80;92.30;;;;;;4938822;28;20345;-67
2023/08/08 08:54:58;;;;;;;8.88;3.17;;;14.80;92.40;;;;;;4945832;28;20034;-68
2023/08/08 08:57:26;;;;;;;8.65;3.20;;;14.70;92.50;;;;;;4940744;28;20545;-68
2023/08/08 08:59:53;;;;;;;10.10;3.50;;;14.60;92.50;;;;;;4946433;28;20375;-70
2023/08/08 09:02:21;;;;;;;8.10;3.03;;;14.50;92.90;;;;;;4947555;28;20500;-70
2023/08/08 09:04:49;;;;;;;9.52;3.40;;;14.50;93.00;;;;;;4953122;28;20134;-69
2023/08/08 09:07:20;;;;;;;10.45;3.28;;;14.50;93.10;;;;;;4942772;28;20108;-70
2023/08/08 09:09:47;;;;;;;12.30;3.70;;;14.40;93.20;;;;;;4948937;28;20043;-69
2023/08/08 09:12:16;;;;;;;15.95;6.03;;;14.30;93.60;;;;;;4947580;28;20110;-69
2023/08/08 09:14:44;;;;;;;15.30;6.65;;;14.20;93.90;;;;;;4949953;28;20521;-69
2023/08/08 09:17:13;;;;;;;13.80;5.65;;;14.10;94.20;;;;;;4950274;28;20496;-69
2023/08/08 09:19:45;;;;;;;10.73;4.85;;;14.00;94.30;;;;;;4953815;28;21560;-69
2023/08/08 09:22:14;;;;;;;10.15;3.92;;;13.90;94.60;;;;;;4966144;28;20122;-69
2023/08/08 09:24:41;;;;;;;15.63;5.22;;;14.00;94.70;;;;;;4948274;28;20482;-70
2023/08/08 09:27:12;;;;;;;13.40;6.50;;;13.90;94.80;;;;;;4939522;28;20413;-70
2023/08/08 09:29:39;;;;;;;21.15;7.65;;;13.90;95.00;;;;;;4960293;28;20547;-69
2023/08/08 09:32:07;;;;;;;15.73;6.00;;;13.90;94.90;;;;;;4944061;28;20038;-69
2023/08/08 09:34:35;;;;;;;17.92;6.78;;;13.90;94.90;;;;;;4940180;28;20042;-69
2023/08/08 09:37:03;;;;;;;20.80;7.55;;;13.80;95.10;;;;;;4941570;28;20028;-69
2023/08/08 09:39:30;;;;;;;25.58;10.07;;;13.80;95.30;;;;;;4950500;28;20384;-68
2023/08/08 09:41:58;;;;;;;33.10;12.77;;;13.80;95.40;;;;;;4946929;28;20031;-69
2023/08/08 09:44:29;;;;;;;27.45;11.43;;;13.80;95.30;;;;;;4944500;28;20054;-69
2023/08/08 09:46:57;;;;;;;18.50;8.27;;;13.80;95.30;;;;;;4949395;28;20094;-69
2023/08/08 09:49:25;;;;;;;15.35;6.72;;;13.70;95.40;;;;;;4952044;28;20358;-69
2023/08/08 09:51:54;;;;;;;14.43;6.03;;;13.60;95.50;;;;;;4943682;28;20118;-70
2023/08/08 09:54:22;;;;;;;10.57;5.68;;;13.60;95.50;;;;;;4950582;28;20027;-71
2023/08/08 09:56:51;;;;;;;12.38;4.95;;;13.60;95.50;;;;;;4945640;28;20034;-69
2023/08/08 09:59:20;;;;;;;11.13;4.10;;;13.50;95.40;;;;;;4952009;28;20089;-69
2023/08/08 10:01:48;;;;;;;10.88;3.58;;;13.60;95.40;;;;;;4945591;28;20015;-69
2023/08/08 10:04:16;;;;;;;7.13;3.90;;;13.50;95.50;;;;;;4943767;28;20110;-70
2023/08/08 10:06:44;;;;;;;5.93;3.50;;;13.40;95.60;;;;;;4948944;28;20027;-70
2023/08/08 10:09:12;;;;;;;9.63;3.50;;;13.40;95.70;;;;;;4951731;28;20042;-70
2023/08/08 10:11:42;;;;;;;7.20;4.18;;;13.30;95.90;;;;;;4945846;28;20504;-71
2023/08/08 10:14:11;;;;;;;13.80;4.63;;;13.30;95.90;;;;;;4941263;28;20032;-70
2023/08/08 10:16:39;;;;;;;13.02;4.78;;;13.30;96.00;;;;;;4936957;28;20047;-70
2023/08/08 10:19:07;;;;;;;10.70;4.88;;;13.30;96.10;;;;;;4935187;28;20023;-69
2023/08/08 10:21:44;;;;;;;11.63;5.20;;;13.40;96.10;;;;;;4936191;28;20037;-69
2023/08/08 10:24:11;;;;;;;8.18;4.45;;;13.50;96.00;;;;;;4944755;28;20031;-70
2023/08/08 10:27:01;;;;;;;13.50;4.65;;;13.60;95.80;;;;;;4941207;28;20121;-70
2023/08/08 10:29:30;;;;;;;8.13;3.65;;;13.60;95.80;;;;;;4939045;28;22457;-68
2023/08/08 10:32:01;;;;;;;5.95;3.15;;;13.70;95.80;;;;;;4940961;28;20381;-70
2023/08/08 10:34:38;;;;;;;10.27;3.45;;;13.70;95.80;;;;;;4949969;28;20104;-69
2023/08/08 10:37:11;;;;;;;5.38;3.58;;;13.80;95.70;;;;;;4940252;28;21035;-70
2023/08/08 10:39:48;;;;;;;10.15;4.00;;;13.80;95.60;;;;;;4945553;28;20027;-69
2023/08/08 10:42:20;;;;;;;9.13;3.40;;;13.90;95.70;;;;;;4943377;28;20031;-69
2023/08/08 10:44:59;;;;;;;9.95;3.85;;;13.90;95.60;;;;;;4946178;28;20031;-69
2023/08/08 10:47:36;;;;;;;10.65;3.45;;;14.00;95.60;;;;;;4946973;28;20028;-70
2023/08/08 10:50:09;;;;;;;6.22;3.53;;;14.00;95.50;;;;;;4941416;28;20066;-69
2023/08/08 10:52:52;;;;;;;13.00;4.30;;;14.00;95.50;;;;;;4946659;28;20389;-69
2023/08/08 10:55:26;;;;;;;11.70;4.13;;;14.00;95.60;;;;;;4936903;28;20027;-69
2023/08/08 10:58:00;;;;;;;7.50;3.75;;;14.00;95.60;;;;;;4941492;28;20118;-69
2023/08/08 11:00:30;;;;;;;6.85;3.63;;;14.20;95.50;;;;;;4922161;28;20047;-69
2023/08/08 11:02:59;;;;;;;8.73;3.05;;;14.10;95.30;;;;;;4939101;28;20507;-71
2023/08/08 11:05:30;;;;;;;9.48;3.60;;;14.20;95.00;;;;;;4943176;28;20047;-71
2023/08/08 11:07:59;;;;;;;9.70;4.32;;;14.10;95.00;;;;;;4937831;28;20097;-69
2023/08/08 11:10:33;;;;;;;12.23;4.18;;;14.10;95.20;;;;;;4959735;28;20042;-71
2023/08/08 11:13:05;;;;;;;6.93;3.20;;;14.10;95.20;;;;;;4928895;28;20126;-71
2023/08/08 11:15:37;;;;;;;10.35;4.15;;;14.20;94.80;;;;;;4935508;28;20091;-71
2023/08/08 11:18:05;;;;;;;8.27;3.40;;;14.30;94.20;;;;;;4941359;28;20094;-70
2023/08/08 11:20:34;;;;;;;6.38;3.22;;;14.00;94.80;;;;;;4939731;28;20595;-70
2023/08/08 11:23:01;;;;;;;8.98;4.32;;;13.80;95.20;;;;;;4938981;28;20098;-69
2023/08/08 11:25:31;;;;;;;18.13;4.43;;;13.80;95.40;;;;;;4942608;28;20042;-69
2023/08/08 11:27:59;;;;;;;12.90;3.85;;;13.90;95.10;;;;;;4944938;28;20031;-70
2023/08/08 11:30:30;;;;;;;8.90;3.35;;;13.90;95.00;;;;;;4960495;28;20537;-70
2023/08/08 11:32:58;;;;;;;10.45;3.70;;;13.90;95.10;;;;;;4941895;28;20023;-70
2023/08/08 11:35:29;;;;;;;12.30;4.10;;;13.70;95.20;;;;;;4940835;28;20046;-70
2023/08/08 11:37:58;;;;;;;6.47;3.75;;;13.40;95.80;;;;;;4948378;28;20023;-68
2023/08/08 11:40:30;;;;;;;8.15;3.38;;;13.30;96.10;;;;;;4944335;28;20035;-68
2023/08/08 11:42:58;;;;;;;7.15;4.05;;;13.20;96.50;;;;;;4937439;28;20269;-68
2023/08/08 11:45:26;;;;;;;8.93;3.53;;;13.10;96.40;;;;;;4941233;28;20028;-69
2023/08/08 11:47:56;;;;;;;8.35;3.90;;;13.10;96.30;;;;;;4946202;28;20035;-68
2023/08/08 11:50:27;;;;;;;11.07;4.72;;;13.00;96.70;;;;;;4944590;28;20074;-69
2023/08/08 11:52:56;;;;;;;9.00;4.47;;;12.90;96.50;;;;;;4946238;28;20035;-70
2023/08/08 11:55:32;;;;;;;10.82;4.18;;;12.80;96.70;;;;;;4896268;28;20534;-69
2023/08/08 11:57:59;;;;;;;10.82;3.85;;;12.70;96.90;;;;;;4946684;28;20051;-68
2023/08/08 12:00:30;;;;;;;8.70;3.65;;;12.70;96.90;;;;;;4940219;28;20487;-69
2023/08/08 12:02:59;;;;;;;11.15;3.45;;;12.70;96.90;;;;;;4942999;28;20053;-68
2023/08/08 12:05:26;;;;;;;7.78;3.33;;;12.60;96.90;;;;;;4947090;28;20090;-69
2023/08/08 12:07:53;;;;;;;8.80;4.13;;;12.50;96.90;;;;;;4945052;28;20537;-69
2023/08/08 12:10:23;;;;;;;10.32;3.78;;;12.50;97.20;;;;;;4943234;28;20054;-69
2023/08/08 12:12:57;;;;;;;5.20;3.17;;;12.40;97.00;;;;;;4943656;28;20038;-69
2023/08/08 12:15:37;;;;;;;8.93;3.10;;;12.40;97.20;;;;;;4946683;28;20042;-69
2023/08/08 12:18:05;;;;;;;8.82;3.95;;;12.40;97.20;;;;;;4946975;28;20019;-69
2023/08/08 12:20:33;;;;;;;11.35;3.47;;;12.40;97.10;;;;;;4945544;28;20037;-71
2023/08/08 12:23:00;;;;;;;5.95;3.60;;;12.30;97.10;;;;;;4946792;28;20078;-69
2023/08/08 12:25:28;;;;;;;8.95;3.83;;;12.30;97.20;;;;;;4957744;28;20070;-69
2023/08/08 12:27:55;;;;;;;11.40;3.97;;;12.40;97.30;;;;;;4948357;28;20031;-70
2023/08/08 12:30:23;;;;;;;11.65;4.95;;;12.40;97.30;;;;;;4950875;28;20047;-69
2023/08/08 12:32:50;;;;;;;12.65;4.30;;;12.40;97.30;;;;;;4938984;28;20539;-69
2023/08/08 12:35:17;;;;;;;7.45;4.80;;;12.30;97.50;;;;;;4947707;28;20454;-69
2023/08/08 12:37:45;;;;;;;9.48;5.68;;;12.20;97.70;;;;;;4947294;28;20042;-69
2023/08/08 12:40:13;;;;;;;9.60;5.75;;;12.10;98.00;;;;;;4942440;28;20086;-69
2023/08/08 12:42:40;;;;;;;14.00;6.35;;;12.10;98.30;;;;;;4941464;28;20489;-68
2023/08/08 12:45:09;;;;;;;9.77;6.10;;;12.10;98.30;;;;;;4946508;28;20024;-68
2023/08/08 12:47:38;;;;;;;15.18;6.20;;;12.10;98.40;;;;;;4943926;28;20473;-69
2023/08/08 12:50:08;;;;;;;10.25;6.20;;;12.00;98.30;;;;;;4948655;28;20083;-68
2023/08/08 12:52:36;;;;;;;10.48;6.85;;;12.00;98.50;;;;;;4947147;28;20032;-68